Archival Weather

Chicago O'Hare International

Chicago, Illinois (KORD)

Report from: Wednesday, February 16, 2022 3:51 AM CST
Current time: Saturday, February 4, 2023 9:36 PM CST

Current weather
Weather history
Weather forecast

Temperature7.8°C (46.0°F)
Wind chill4.0°C (39.3°F)
Dew point0.0°C (32.0°F)
Winds 14 kts (7.2 m/s, 16.1 mph) South (190°)
Wind gusts 23 kts (11.8 m/s, 26.5 mph)
Visibility10 mi. (16.1 km)
Clouds Ceiling: Overcast 25,000 ft. (7,620 m)
Altimeter29.85 in.Hg (1011 mB)
Relative humidity58 %
Density altitude-689 ft. (-210 m)
Sea-level pressure101.1 kPa (1011 mB, 29.86 in.Hg)
Remarks Automated weather observing station with precipitation discriminator
Flight conditions Visual Meteorological Conditions
Raw dataKORD 160951Z 19014G23KT 10SM OVC250 08/00 A2985 RMK AO2 SLP111 T00780000
An unhandled exception has occurred. See browser dev tools for details. Reload 🗙